Allentown, New Jersey
Current Conditions -  °F | °C
As of 12:58 AM on Sunday 21 Dec 2014 (Local Time) from KWRI Reporting Station
Overcast Overcast  
Wind Chill: 25°   Ceiling: 3300
Heat Index: 30°   Visibility: 10mi
Dew Point: 23°   Wind: 5mph
Humidity: 76%   Direction: 330°NNW
Pressure: 30.27"   Gusts: NA
Location:  40.18°N, 74.58°W
Report Text: KWRI 210558Z AUTO 33004KT 10SM OVC033 M01/M05 A3027 RMK AO2 SLP255 T10131050 11005 21033 50000 $
Loading
Personal Weather Stations






























Interactive Weather Map New forecast layout! Learn more

10-Day Weather Forecast

Advertisements
Track Severe Weather on mobile